Time;durP1;ratioP1;P1;durP2;ratioP2;P2;SDS_P1;SDS_P2;PMS_P1;PMS_P2;Temp;Humidity;BMP_temperature;BMP_pressure;BME280_temperature;BME280_humidity;BME280_pressure;Samples;Min_cycle;Max_cycle;Signal;HPM_P1;HPM_P2
2023/11/27 00:01:57;;;;;;;0.00;0.00;;;;;;;9.64;100.00;99353.75;4825499;29;20109;-76
2023/11/27 00:04:22;;;;;;;0.00;0.00;;;;;;;9.60;100.00;99340.69;4844266;29;20034;-76
2023/11/27 00:06:48;;;;;;;0.00;0.00;;;;;;;9.67;100.00;99347.75;4856262;29;20034;-77
2023/11/27 00:09:13;;;;;;;0.00;0.00;;;;;;;9.73;100.00;99346.59;4830095;29;20038;-76
2023/11/27 00:11:39;;;;;;;0.00;0.00;;;;;;;9.64;100.00;99331.91;4849387;29;20524;-76
2023/11/27 00:14:06;;;;;;;0.00;0.00;;;;;;;9.59;100.00;99330.88;4814738;29;20129;-76
2023/11/27 00:16:32;;;;;;;0.00;0.00;;;;;;;9.64;100.00;99331.91;4832708;29;20044;-76
2023/11/27 00:18:57;;;;;;;0.00;0.00;;;;;;;9.64;100.00;99326.47;4844772;29;20029;-78
2023/11/27 00:21:23;;;;;;;0.00;0.00;;;;;;;9.70;100.00;99333.53;4831015;29;20048;-75
2023/11/27 00:23:48;;;;;;;0.00;0.00;;;;;;;9.59;100.00;99314.50;4849192;29;20032;-74
2023/11/27 00:26:16;;;;;;;0.00;0.00;;;;;;;9.56;100.00;99304.16;4850045;29;20065;-76
2023/11/27 00:28:42;;;;;;;0.00;0.00;;;;;;;9.60;100.00;99307.94;4842937;29;20038;-77
2023/11/27 00:31:09;;;;;;;0.00;0.00;;;;;;;9.58;100.00;99312.88;4834726;29;20035;-77
2023/11/27 00:33:36;;;;;;;0.00;0.00;;;;;;;9.64;100.00;99318.28;4857140;29;20120;-77
2023/11/27 00:36:01;;;;;;;0.00;0.00;;;;;;;9.55;100.00;99305.25;4840259;29;20045;-76
2023/11/27 00:38:27;;;;;;;0.10;0.10;;;;;;;9.42;100.00;99286.81;4829553;29;20037;-76
2023/11/27 00:40:55;;;;;;;0.00;0.00;;;;;;;9.37;100.00;99273.22;4841779;29;20110;-78
2023/11/27 00:43:20;;;;;;;0.00;0.00;;;;;;;9.47;100.00;99292.22;4831648;29;20086;-75
2023/11/27 00:45:45;;;;;;;0.00;0.00;;;;;;;9.48;100.00;99299.31;4849785;29;20377;-74
2023/11/27 00:48:11;;;;;;;0.00;0.00;;;;;;;9.45;100.00;99291.72;4848085;29;20045;-75
2023/11/27 00:50:39;;;;;;;0.00;0.00;;;;;;;9.42;100.00;99275.91;4836286;29;20059;-75
2023/11/27 00:53:05;;;;;;;0.00;0.00;;;;;;;9.43;100.00;99288.44;4834563;29;20046;-76
2023/11/27 00:55:30;;;;;;;0.00;0.00;;;;;;;9.48;100.00;99285.66;4834187;29;20477;-77
2023/11/27 00:57:55;;;;;;;0.00;0.00;;;;;;;9.37;100.00;99262.28;4845144;29;20438;-75
2023/11/27 01:00:24;;;;;;;0.00;0.00;;;;;;;9.40;100.00;99267.19;4849593;29;20034;-76
2023/11/27 01:02:53;;;;;;;0.00;0.00;;;;;;;9.46;100.00;99274.22;4854137;29;20022;-76
2023/11/27 01:05:19;;;;;;;0.00;0.00;;;;;;;9.50;100.00;99272.53;4845562;29;20029;-73
2023/11/27 01:07:44;;;;;;;0.00;0.00;;;;;;;9.44;100.00;99258.13;4845750;29;20052;-75
2023/11/27 01:10:11;;;;;;;0.00;0.00;;;;;;;9.54;100.00;99262.69;4850767;29;20033;-75
2023/11/27 01:12:38;;;;;;;0.10;0.10;;;;;;;9.52;100.00;99248.53;4845730;29;20092;-76
2023/11/27 01:15:06;;;;;;;0.00;0.00;;;;;;;9.45;100.00;99248.03;4838748;29;20030;-75
2023/11/27 01:17:35;;;;;;;0.08;0.08;;;;;;;9.51;100.00;99257.81;4839277;29;20032;-75
2023/11/27 01:20:00;;;;;;;0.00;0.00;;;;;;;9.22;100.00;99231.31;4839037;29;20045;-77
2023/11/27 01:22:25;;;;;;;0.00;0.00;;;;;;;9.44;100.00;99260.06;4845713;29;20037;-75
2023/11/27 01:25:01;;;;;;;;;;;;;;;;;;;;;
2023/11/27 01:27:27;;;;;;;0.00;0.00;;;;;;;9.47;100.00;99256.75;4837547;29;20056;-75
2023/11/27 01:29:52;;;;;;;0.00;0.00;;;;;;;9.42;100.00;99248.63;4844781;29;20025;-76
2023/11/27 01:32:17;;;;;;;0.00;0.00;;;;;;;9.43;100.00;99250.22;4826781;29;20045;-75
2023/11/27 01:34:43;;;;;;;0.08;0.08;;;;;;;9.34;100.00;99230.13;4852807;29;20690;-77
2023/11/27 01:37:08;;;;;;;0.03;0.03;;;;;;;9.26;100.00;99229.66;4830838;29;20690;-76
2023/11/27 01:39:41;;;;;;;0.00;0.00;;;;;;;9.10;100.00;99214.53;4842182;29;20058;-77
2023/11/27 01:42:09;;;;;;;0.00;0.00;;;;;;;9.05;100.00;99220.84;4821173;29;20030;-75
2023/11/27 01:44:36;;;;;;;0.00;0.00;;;;;;;9.06;100.00;99230.63;4841659;29;20066;-76
2023/11/27 01:47:01;;;;;;;0.00;0.00;;;;;;;9.10;100.00;99228.16;4845875;29;20037;-75
2023/11/27 01:49:27;;;;;;;0.00;0.00;;;;;;;9.09;100.00;99223.78;4823762;29;20382;-78
2023/11/27 01:51:53;;;;;;;0.00;0.00;;;;;;;9.15;100.00;99227.31;4820267;29;20162;-75
2023/11/27 01:54:19;;;;;;;0.10;0.10;;;;;;;9.19;100.00;99234.63;4836824;29;20071;-76
2023/11/27 01:56:48;;;;;;;0.00;0.00;;;;;;;9.16;100.00;99223.47;4829719;29;20065;-75
2023/11/27 01:59:14;;;;;;;0.00;0.00;;;;;;;9.13;100.00;99219.41;4834300;29;20176;-75
2023/11/27 02:01:40;;;;;;;0.00;0.00;;;;;;;9.09;100.00;99234.72;4844009;29;20133;-76
2023/11/27 02:04:06;;;;;;;0.00;0.00;;;;;;;9.04;100.00;99221.13;4844695;29;20070;-76
2023/11/27 02:06:31;;;;;;;0.00;0.00;;;;;;;9.12;100.00;99223.22;4836096;29;20029;-76
2023/11/27 02:08:57;;;;;;;0.00;0.00;;;;;;;9.22;100.00;99228.59;4828981;29;20492;-75
2023/11/27 02:11:25;;;;;;;0.10;0.10;;;;;;;9.20;100.00;99219.88;4837409;29;20049;-75
2023/11/27 02:13:50;;;;;;;0.00;0.00;;;;;;;9.20;100.00;99206.25;4843670;29;20496;-75
2023/11/27 02:16:16;;;;;;;0.00;0.00;;;;;;;9.21;100.00;99202.44;4820195;29;20069;-77
2023/11/27 02:18:42;;;;;;;0.00;0.00;;;;;;;9.26;100.00;99207.81;4852119;29;20033;-74
2023/11/27 02:21:09;;;;;;;0.00;0.00;;;;;;;9.28;100.00;99204.00;4847921;29;20189;-75
2023/11/27 02:23:35;;;;;;;0.00;0.00;;;;;;;9.19;100.00;99190.19;4845300;29;20059;-76
2023/11/27 02:26:00;;;;;;;0.00;0.00;;;;;;;9.19;100.00;99192.91;4862232;29;20485;-76
2023/11/27 02:28:26;;;;;;;0.00;0.00;;;;;;;9.07;100.00;99187.84;4842179;29;20061;-75
2023/11/27 02:30:53;;;;;;;0.00;0.00;;;;;;;9.07;100.00;99185.09;4831764;29;20038;-76
2023/11/27 02:33:31;;;;;;;;;;;;;;;;;;;;;
2023/11/27 02:35:57;;;;;;;0.10;0.10;;;;;;;9.12;100.00;99171.41;4838355;29;20424;-76
2023/11/27 02:38:25;;;;;;;0.00;0.00;;;;;;;9.02;100.00;99157.88;4829440;29;20031;-75
2023/11/27 02:40:50;;;;;;;0.00;0.00;;;;;;;9.12;100.00;99174.13;4838093;29;20114;-77
2023/11/27 02:43:16;;;;;;;0.00;0.00;;;;;;;9.13;100.00;99164.84;4842225;29;20033;-76
2023/11/27 02:45:41;;;;;;;0.00;0.00;;;;;;;9.11;100.00;99150.69;4835669;29;20106;-76
2023/11/27 02:48:07;;;;;;;0.00;0.00;;;;;;;9.21;100.00;99166.13;4852497;29;20449;-74
2023/11/27 02:50:32;;;;;;;0.00;0.00;;;;;;;9.07;100.00;99155.91;4838587;29;20041;-75
2023/11/27 02:52:58;;;;;;;0.00;0.00;;;;;;;9.08;100.00;99151.25;4826086;29;20102;-77
2023/11/27 02:55:28;;;;;;;0.00;0.00;;;;;;;9.06;100.00;99151.53;4823894;29;20423;-76
2023/11/27 02:58:00;;;;;;;0.00;0.00;;;;;;;8.85;100.00;99115.50;4834455;29;20090;-77
2023/11/27 03:00:26;;;;;;;0.00;0.00;;;;;;;9.04;100.00;99139.31;4850003;29;20030;-77
2023/11/27 03:02:51;;;;;;;0.00;0.00;;;;;;;8.98;100.00;99129.53;4825869;29;20498;-77
2023/11/27 03:05:17;;;;;;;0.00;0.00;;;;;;;9.07;100.00;99134.09;4850874;29;20041;-77
2023/11/27 03:07:43;;;;;;;0.00;0.00;;;;;;;9.07;100.00;99127.84;4853019;29;20029;-77
2023/11/27 03:10:11;;;;;;;0.00;0.00;;;;;;;8.97;100.00;99111.56;4825207;29;20446;-77
2023/11/27 03:12:37;;;;;;;0.00;0.00;;;;;;;9.04;100.00;99120.22;4832252;29;20085;-77
2023/11/27 03:15:05;;;;;;;0.00;0.00;;;;;;;8.95;100.00;99100.97;4846690;29;20033;-76
2023/11/27 03:17:33;;;;;;;0.00;0.00;;;;;;;8.90;100.00;99074.53;4853322;29;20070;-77
2023/11/27 03:19:58;;;;;;;0.00;0.00;;;;;;;8.86;100.00;99065.31;4855362;29;20034;-76
2023/11/27 03:22:24;;;;;;;0.00;0.00;;;;;;;8.96;100.00;99077.22;4859843;29;20506;-77
2023/11/27 03:24:49;;;;;;;0.00;0.00;;;;;;;9.00;100.00;99072.81;4864119;29;20089;-77
2023/11/27 03:27:17;;;;;;;0.00;0.00;;;;;;;8.88;100.00;99057.66;4825115;29;20126;-77
2023/11/27 03:29:43;;;;;;;0.00;0.00;;;;;;;8.94;100.00;99065.81;4836345;29;20095;-77
2023/11/27 03:32:08;;;;;;;0.00;0.00;;;;;;;8.83;100.00;99051.44;4849136;29;20026;-77
2023/11/27 03:34:34;;;;;;;0.00;0.00;;;;;;;8.82;100.00;99045.19;4852771;29;20088;-76
2023/11/27 03:36:59;;;;;;;0.00;0.00;;;;;;;8.83;100.00;99052.25;4838869;29;20054;-75
2023/11/27 03:39:25;;;;;;;0.00;0.00;;;;;;;8.87;100.00;99053.31;4834932;29;20042;-75
2023/11/27 03:41:50;;;;;;;0.00;0.00;;;;;;;8.91;100.00;99059.81;4819368;29;20029;-75
2023/11/27 03:44:18;;;;;;;0.00;0.00;;;;;;;8.87;100.00;99055.22;4841792;29;20040;-76
2023/11/27 03:46:43;;;;;;;0.00;0.00;;;;;;;8.92;100.00;99063.34;4849418;29;20054;-76
2023/11/27 03:49:09;;;;;;;0.00;0.00;;;;;;;8.82;100.00;99056.09;4848015;29;20034;-76
2023/11/27 03:51:37;;;;;;;0.00;0.00;;;;;;;8.86;100.00;99061.78;4850205;29;20469;-75
2023/11/27 03:54:03;;;;;;;0.00;0.00;;;;;;;8.80;100.00;99058.28;4839573;29;20042;-77
2023/11/27 03:56:29;;;;;;;0.00;0.00;;;;;;;8.83;100.00;99063.16;4823977;29;20037;-77
2023/11/27 03:58:54;;;;;;;0.00;0.00;;;;;;;8.82;100.00;99061.53;4850951;29;20046;-77
2023/11/27 04:01:21;;;;;;;0.00;0.00;;;;;;;8.72;100.00;99045.28;4849412;29;20370;-76
2023/11/27 04:03:47;;;;;;;0.00;0.00;;;;;;;8.81;100.00;99046.28;4837892;29;20083;-77
2023/11/27 04:06:22;;;;;;;0.00;0.00;;;;;;;8.84;100.00;99053.09;4845939;29;20026;-76
2023/11/27 04:08:48;;;;;;;0.00;0.00;;;;;;;8.56;100.00;99010.00;4836850;29;20637;-77
2023/11/27 04:11:14;;;;;;;0.00;0.00;;;;;;;8.73;100.00;99036.00;4809549;29;20496;-77
2023/11/27 04:13:39;;;;;;;0.00;0.00;;;;;;;8.77;100.00;99053.41;4839581;29;20112;-76
2023/11/27 04:16:06;;;;;;;0.00;0.00;;;;;;;8.69;100.00;99040.41;4833639;29;20039;-76
2023/11/27 04:18:32;;;;;;;0.00;0.00;;;;;;;8.74;100.00;99051.25;4839472;29;20025;-76
2023/11/27 04:20:58;;;;;;;0.00;0.00;;;;;;;8.70;100.00;99044.75;4835952;29;22040;-77
2023/11/27 04:23:23;;;;;;;0.00;0.00;;;;;;;8.72;100.00;99050.75;4831142;29;20124;-76
2023/11/27 04:25:49;;;;;;;0.00;0.00;;;;;;;8.74;100.00;99043.88;4849637;29;20038;-76
2023/11/27 04:28:15;;;;;;;0.00;0.00;;;;;;;8.65;100.00;99031.19;4851031;29;20114;-74
2023/11/27 04:30:40;;;;;;;0.00;0.00;;;;;;;8.73;100.00;99046.91;4847792;29;20037;-76
2023/11/27 04:33:08;;;;;;;0.00;0.00;;;;;;;8.66;100.00;99032.78;4843091;29;20021;-76
2023/11/27 04:35:34;;;;;;;0.00;0.00;;;;;;;8.69;100.00;99041.22;4827550;29;20169;-76
2023/11/27 04:37:59;;;;;;;0.00;0.00;;;;;;;8.68;100.00;99033.34;4836054;29;20116;-75
2023/11/27 04:40:24;;;;;;;0.00;0.00;;;;;;;8.64;100.00;99026.84;4841013;29;20088;-77
2023/11/27 04:42:50;;;;;;;0.00;0.00;;;;;;;8.53;100.00;99013.31;4849509;29;20037;-75
2023/11/27 04:45:18;;;;;;;0.00;0.00;;;;;;;8.59;100.00;99035.06;4838037;29;20731;-76
2023/11/27 04:47:43;;;;;;;0.00;0.00;;;;;;;8.60;100.00;99025.78;4855270;29;20396;-78
2023/11/27 04:50:09;;;;;;;0.00;0.00;;;;;;;8.56;100.00;99017.38;4848013;29;20025;-76
2023/11/27 04:52:35;;;;;;;0.00;0.00;;;;;;;8.65;100.00;99026.53;4848553;29;20044;-76
2023/11/27 04:55:03;;;;;;;0.00;0.00;;;;;;;8.65;100.00;99017.56;4842133;29;20098;-77
2023/11/27 04:57:28;;;;;;;0.00;0.00;;;;;;;8.58;100.00;99000.75;4837953;29;20026;-76
2023/11/27 04:59:54;;;;;;;0.00;0.00;;;;;;;8.64;100.00;99018.66;4848894;29;20044;-76
2023/11/27 05:02:21;;;;;;;0.00;0.00;;;;;;;8.52;100.00;99003.50;4863368;29;20037;-76
2023/11/27 05:04:47;;;;;;;0.00;0.00;;;;;;;8.58;100.00;99008.91;4843985;29;20118;-77
2023/11/27 05:07:12;;;;;;;0.00;0.00;;;;;;;8.49;100.00;98995.91;4818708;29;20029;-76
2023/11/27 05:09:41;;;;;;;0.00;0.00;;;;;;;8.52;100.00;99003.50;4848051;29;20468;-77
2023/11/27 05:12:07;;;;;;;0.00;0.00;;;;;;;8.37;100.00;98984.56;4835212;29;20030;-75
2023/11/27 05:14:32;;;;;;;0.00;0.00;;;;;;;8.41;100.00;98985.63;4827452;29;20030;-76
2023/11/27 05:16:58;;;;;;;0.00;0.00;;;;;;;8.41;100.00;98976.59;4840452;29;20030;-73
2023/11/27 05:19:23;;;;;;;0.00;0.00;;;;;;;8.41;100.00;98968.44;4836452;29;20038;-74
2023/11/27 05:21:52;;;;;;;0.00;0.00;;;;;;;8.49;100.00;98985.00;4847961;29;20025;-75
2023/11/27 05:24:17;;;;;;;0.00;0.00;;;;;;;8.37;100.00;98965.50;4846087;29;20040;-74
2023/11/27 05:26:43;;;;;;;0.00;0.00;;;;;;;8.39;100.00;98966.00;4828620;29;20034;-75
2023/11/27 05:29:11;;;;;;;0.10;0.10;;;;;;;8.42;100.00;98968.16;4854226;29;20074;-75
2023/11/27 05:31:37;;;;;;;0.00;0.00;;;;;;;8.29;100.00;98944.31;4846921;29;20041;-74
2023/11/27 05:34:02;;;;;;;0.00;0.00;;;;;;;8.36;100.00;98951.03;4847221;29;20030;-74
2023/11/27 05:36:28;;;;;;;0.10;0.10;;;;;;;8.33;100.00;98942.66;4855014;29;20034;-74
2023/11/27 05:38:53;;;;;;;0.00;0.00;;;;;;;8.36;100.00;98944.78;4842424;29;20038;-74
2023/11/27 05:41:22;;;;;;;0.00;0.00;;;;;;;8.46;100.00;98969.22;4868482;29;20108;-73
2023/11/27 05:43:48;;;;;;;0.00;0.00;;;;;;;8.44;100.00;98957.81;4851554;29;20121;-74
2023/11/27 05:46:13;;;;;;;0.00;0.00;;;;;;;8.45;100.00;98959.44;4835902;29;20046;-73
2023/11/27 05:48:38;;;;;;;0.00;0.00;;;;;;;8.41;100.00;98954.81;4851721;29;21002;-73
2023/11/27 05:51:04;;;;;;;0.00;0.00;;;;;;;8.43;100.00;98952.63;4848234;29;20032;-74
2023/11/27 05:53:31;;;;;;;0.00;0.00;;;;;;;8.47;100.00;98949.06;4838311;29;20029;-75
2023/11/27 05:55:57;;;;;;;0.00;0.00;;;;;;;8.50;100.00;98951.22;4842594;29;20026;-74
2023/11/27 05:58:22;;;;;;;0.00;0.00;;;;;;;8.43;100.00;98923.47;4827976;29;20034;-73
2023/11/27 06:00:48;;;;;;;0.00;0.00;;;;;;;8.33;100.00;98912.69;4834431;29;20094;-74
2023/11/27 06:03:13;;;;;;;0.00;0.00;;;;;;;8.48;100.00;98926.16;4855794;29;20042;-74
2023/11/27 06:05:41;;;;;;;0.00;0.00;;;;;;;8.44;100.00;98930.59;4836260;29;20099;-73
2023/11/27 06:08:07;;;;;;;0.00;0.00;;;;;;;8.38;100.00;98927.06;4868005;29;20041;-76
2023/11/27 06:10:32;;;;;;;0.00;0.00;;;;;;;8.41;100.00;98920.25;4827069;29;20036;-73
2023/11/27 06:12:58;;;;;;;0.00;0.00;;;;;;;8.48;100.00;98936.25;4852918;29;20029;-73
2023/11/27 06:15:23;;;;;;;0.00;0.00;;;;;;;8.49;100.00;98927.00;4836104;29;20055;-74
2023/11/27 06:17:49;;;;;;;0.00;0.00;;;;;;;8.39;100.00;98900.63;4864608;29;20052;-74
2023/11/27 06:20:14;;;;;;;0.00;0.00;;;;;;;8.42;100.00;98916.41;4830203;29;20116;-73
2023/11/27 06:22:41;;;;;;;0.00;0.00;;;;;;;8.47;100.00;98924.56;4852913;29;20033;-74
2023/11/27 06:25:08;;;;;;;0.00;0.00;;;;;;;8.42;100.00;98908.22;4858908;29;20040;-74
2023/11/27 06:27:34;;;;;;;0.00;0.00;;;;;;;8.38;100.00;98899.00;4851623;29;20041;-75
2023/11/27 06:29:59;;;;;;;0.00;0.00;;;;;;;8.49;100.00;98899.75;4828237;29;20033;-73
2023/11/27 06:32:25;;;;;;;0.00;0.00;;;;;;;8.47;100.00;98897.31;4868055;29;20089;-73
2023/11/27 06:34:51;;;;;;;0.00;0.00;;;;;;;8.38;100.00;98877.22;4852865;29;20040;-74
2023/11/27 06:37:16;;;;;;;0.00;0.00;;;;;;;8.48;100.00;98890.75;4857027;29;20029;-75
2023/11/27 06:39:42;;;;;;;0.00;0.00;;;;;;;8.49;100.00;98888.84;4850301;29;20050;-75
2023/11/27 06:42:11;;;;;;;0.00;0.00;;;;;;;8.50;100.00;98882.31;4863960;29;20042;-75
2023/11/27 06:44:37;;;;;;;0.00;0.00;;;;;;;8.59;100.00;98894.19;4847127;29;20121;-73
2023/11/27 06:47:03;;;;;;;0.00;0.00;;;;;;;8.62;100.00;98887.34;4850105;29;20449;-75
2023/11/27 06:49:29;;;;;;;0.00;0.00;;;;;;;8.67;100.00;98895.44;4852284;29;20033;-76
2023/11/27 06:51:54;;;;;;;0.10;0.10;;;;;;;8.63;100.00;98875.31;4839910;29;20034;-73
2023/11/27 06:54:19;;;;;;;0.00;0.00;;;;;;;8.66;100.00;98867.41;4824744;29;20037;-75
2023/11/27 06:56:45;;;;;;;0.00;0.00;;;;;;;8.63;100.00;98858.97;4849934;29;20036;-74
2023/11/27 06:59:10;;;;;;;0.00;0.00;;;;;;;8.63;100.00;98867.16;4850666;29;20033;-73
2023/11/27 07:01:39;;;;;;;0.00;0.00;;;;;;;8.62;100.00;98873.72;4829259;29;20033;-74
2023/11/27 07:04:05;;;;;;;0.00;0.00;;;;;;;8.62;100.00;98873.72;4852371;29;20117;-73
2023/11/27 07:06:30;;;;;;;0.00;0.00;;;;;;;8.60;100.00;98862.28;4849071;29;20451;-74
2023/11/27 07:08:59;;;;;;;0.00;0.00;;;;;;;8.60;100.00;98867.72;4849013;29;20391;-74
2023/11/27 07:11:25;;;;;;;0.00;0.00;;;;;;;8.54;100.00;98859.63;4850963;29;20070;-74
2023/11/27 07:14:12;;;;;;;0.00;0.00;;;;;;;8.45;100.00;98845.00;4846986;29;20049;-75
2023/11/27 07:16:37;;;;;;;0.00;0.00;;;;;;;8.43;100.00;98841.75;4865245;29;20672;-74
2023/11/27 07:19:03;;;;;;;0.00;0.00;;;;;;;8.55;100.00;98861.25;4845792;29;20132;-74
2023/11/27 07:21:28;;;;;;;0.00;0.00;;;;;;;8.52;100.00;98867.28;4851101;29;20036;-74
2023/11/27 07:23:54;;;;;;;0.00;0.00;;;;;;;8.52;100.00;98850.94;4840046;29;20042;-74
2023/11/27 07:26:20;;;;;;;0.00;0.00;;;;;;;8.46;100.00;98846.66;4849586;29;20525;-75
2023/11/27 07:28:46;;;;;;;0.00;0.00;;;;;;;8.48;100.00;98844.44;4847070;29;20048;-76
2023/11/27 07:31:16;;;;;;;0.00;0.00;;;;;;;8.44;100.00;98840.69;4822373;29;20124;-74
2023/11/27 07:33:41;;;;;;;0.00;0.00;;;;;;;8.40;100.00;98836.88;4857063;29;20668;-75
2023/11/27 07:36:08;;;;;;;0.03;0.03;;;;;;;8.33;100.00;98830.97;4820359;29;20036;-74
2023/11/27 07:38:34;;;;;;;0.00;0.00;;;;;;;8.32;100.00;98834.78;4848784;29;20480;-74
2023/11/27 07:40:59;;;;;;;0.05;0.05;;;;;;;8.31;100.00;98827.72;4823455;29;20184;-75
2023/11/27 07:43:25;;;;;;;0.00;0.00;;;;;;;8.36;100.00;98828.47;4851351;29;20025;-74
2023/11/27 07:45:51;;;;;;;0.00;0.00;;;;;;;8.37;100.00;98821.13;4843476;29;20125;-75
2023/11/27 07:48:18;;;;;;;0.00;0.00;;;;;;;8.37;100.00;98826.56;4847789;29;20042;-74
2023/11/27 07:50:44;;;;;;;0.00;0.00;;;;;;;8.37;100.00;98816.47;4856878;29;20445;-75
2023/11/27 07:53:09;;;;;;;0.00;0.00;;;;;;;8.37;100.00;98816.47;4845009;29;20125;-73
2023/11/27 07:55:35;;;;;;;0.00;0.00;;;;;;;8.37;100.00;98815.69;4849383;29;20030;-73
2023/11/27 07:58:02;;;;;;;0.00;0.00;;;;;;;8.36;100.00;98814.84;4829826;29;20165;-74
2023/11/27 08:00:35;;;;;;;0.00;0.00;;;;;;;8.35;100.00;98813.25;4853694;29;20709;-75
2023/11/27 08:03:00;;;;;;;0.10;0.10;;;;;;;8.31;100.00;98816.81;4843536;29;20112;-76
2023/11/27 08:05:27;;;;;;;0.00;0.00;;;;;;;8.30;100.00;98820.66;4849091;29;20560;-75
2023/11/27 08:07:56;;;;;;;0.00;0.00;;;;;;;8.19;100.00;98799.00;4842440;29;20369;-75
2023/11/27 08:10:32;;;;;;;0.00;0.00;;;;;;;8.31;100.00;98817.66;4847964;29;20053;-75
2023/11/27 08:13:00;;;;;;;0.00;0.00;;;;;;;8.26;100.00;98797.84;4859912;29;20061;-75
2023/11/27 08:15:25;;;;;;;0.10;0.10;;;;;;;8.30;100.00;98807.06;4822533;29;20060;-74
2023/11/27 08:17:53;;;;;;;0.00;0.00;;;;;;;8.26;100.00;98803.28;4843951;29;20018;-75
2023/11/27 08:20:23;;;;;;;0.00;0.00;;;;;;;8.27;100.00;98799.47;4852043;29;20029;-75
2023/11/27 08:22:48;;;;;;;0.00;0.00;;;;;;;8.25;100.00;98796.19;4832408;29;20077;-74
2023/11/27 08:25:16;;;;;;;0.00;0.00;;;;;;;8.23;100.00;98792.97;4831626;29;20049;-76
2023/11/27 08:27:42;;;;;;;0.00;0.00;;;;;;;8.30;100.00;98787.97;4842552;29;20726;-76
2023/11/27 08:30:11;;;;;;;0.00;0.00;;;;;;;8.35;100.00;98798.81;4842044;29;20029;-76
2023/11/27 08:32:37;;;;;;;0.00;0.00;;;;;;;8.28;100.00;98779.28;4836148;29;20415;-75
2023/11/27 08:35:08;;;;;;;0.00;0.00;;;;;;;8.25;100.00;98774.41;4846264;29;20030;-77
2023/11/27 08:37:37;;;;;;;0.00;0.00;;;;;;;8.27;100.00;98783.13;4844590;29;20061;-75
2023/11/27 08:40:09;;;;;;;0.00;0.00;;;;;;;8.11;100.00;98780.56;4839941;29;20110;-76
2023/11/27 08:42:35;;;;;;;0.00;0.00;;;;;;;8.08;100.00;98785.78;4847439;29;20441;-76
2023/11/27 08:45:16;;;;;;;0.00;0.00;;;;;;;8.02;100.00;98777.66;4829163;29;20032;-75
2023/11/27 08:47:50;;;;;;;0.10;0.10;;;;;;;8.11;100.00;98780.56;4847721;29;20025;-75
2023/11/27 08:50:21;;;;;;;0.00;0.00;;;;;;;8.17;100.00;98776.69;4842176;29;20032;-76
2023/11/27 08:52:47;;;;;;;0.00;0.00;;;;;;;8.34;100.00;98786.31;4847560;29;20034;-77
2023/11/27 08:55:18;;;;;;;0.00;0.00;;;;;;;8.36;100.00;98775.91;4829985;29;20082;-77
2023/11/27 08:57:48;;;;;;;0.00;0.00;;;;;;;8.55;100.00;98779.50;4865952;29;20127;-76
2023/11/27 09:00:17;;;;;;;0.00;0.00;;;;;;;8.81;100.00;98792.00;4846164;29;20044;-75
2023/11/27 09:02:44;;;;;;;0.00;0.00;;;;;;;8.87;100.00;98798.97;4844296;29;20074;-75
2023/11/27 09:05:09;;;;;;;0.00;0.00;;;;;;;8.78;100.00;98793.38;4842485;29;20030;-74
2023/11/27 09:07:35;;;;;;;0.05;0.05;;;;;;;8.80;100.00;98787.63;4854371;29;20053;-77
2023/11/27 09:10:02;;;;;;;0.00;0.00;;;;;;;8.72;100.00;98772.75;4839110;29;20904;-77
2023/11/27 09:12:28;;;;;;;0.00;0.00;;;;;;;8.90;100.00;98782.03;4851807;29;20038;-75
2023/11/27 09:14:53;;;;;;;0.00;0.00;;;;;;;9.05;100.00;98775.53;4843690;29;20074;-76
2023/11/27 09:17:19;;;;;;;0.00;0.00;;;;;;;9.39;100.00;98785.38;4831372;29;20049;-75
2023/11/27 09:19:45;;;;;;;0.10;0.10;;;;;;;9.83;100.00;98773.16;4827811;29;20037;-76
2023/11/27 09:22:11;;;;;;;0.00;0.00;;;;;;;10.13;100.00;98785.41;4838240;29;20053;-76
2023/11/27 09:24:39;;;;;;;0.00;0.00;;;;;;;10.19;100.00;98774.38;4839780;29;20429;-75
2023/11/27 09:27:06;;;;;;;0.00;0.00;;;;;;;10.49;100.00;98772.97;4829524;29;20037;-76
2023/11/27 09:29:32;;;;;;;0.00;0.00;;;;;;;11.94;99.47;98770.38;4842915;29;20260;-75
2023/11/27 09:32:03;;;;;;;0.00;0.00;;;;;;;12.68;89.18;98766.06;4817933;29;20506;-75
2023/11/27 09:34:28;;;;;;;0.00;0.00;;;;;;;14.07;82.71;98765.09;4839261;29;20430;-75
2023/11/27 09:36:54;;;;;;;0.00;0.00;;;;;;;15.65;77.10;98767.56;4846597;29;20037;-75
2023/11/27 09:39:19;;;;;;;0.00;0.00;;;;;;;18.79;62.49;98757.13;4842663;29;20057;-75
2023/11/27 09:41:48;;;;;;;0.10;0.10;;;;;;;20.71;53.68;98751.97;4833116;29;20104;-76
2023/11/27 09:44:25;;;;;;;0.00;0.00;;;;;;;19.18;53.38;98758.00;4846351;29;20484;-73
2023/11/27 09:46:53;;;;;;;0.00;0.00;;;;;;;17.63;58.20;98761.81;4866465;29;20040;-74
2023/11/27 09:49:31;;;;;;;0.00;0.00;;;;;;;17.20;59.16;98758.69;4859179;29;20392;-75
2023/11/27 09:52:01;;;;;;;0.00;0.00;;;;;;;15.35;63.31;98739.34;4840084;29;20029;-73
2023/11/27 09:54:39;;;;;;;0.00;0.00;;;;;;;13.62;70.21;98751.84;4849775;29;20043;-74
2023/11/27 09:57:09;;;;;;;0.00;0.00;;;;;;;12.63;76.01;98758.81;4858390;29;20041;-75
2023/11/27 09:59:38;;;;;;;0.10;0.10;;;;;;;11.97;80.28;98750.56;4855922;29;20104;-75
2023/11/27 10:02:14;;;;;;;0.00;0.00;;;;;;;11.61;83.36;98756.94;4864726;29;20044;-77
2023/11/27 10:04:42;;;;;;;0.00;0.00;;;;;;;11.20;84.90;98753.34;4862634;29;20029;-77
2023/11/27 10:07:07;;;;;;;0.00;0.00;;;;;;;10.81;87.79;98735.66;4826942;29;20032;-76
2023/11/27 10:09:34;;;;;;;0.00;0.00;;;;;;;10.73;88.98;98733.63;4849681;29;20149;-77
2023/11/27 10:12:04;;;;;;;0.00;0.00;;;;;;;11.12;89.61;98735.72;4868013;29;20116;-77
2023/11/27 10:14:30;;;;;;;0.00;0.00;;;;;;;11.84;86.16;98735.81;4850545;29;20057;-76
2023/11/27 10:16:59;;;;;;;0.00;0.00;;;;;;;12.67;82.57;98737.81;4833934;29;20186;-77
2023/11/27 10:19:28;;;;;;;0.00;0.00;;;;;;;13.35;77.55;98722.84;4830659;29;20044;-76
2023/11/27 10:21:56;;;;;;;0.00;0.00;;;;;;;13.85;76.37;98730.44;4860084;29;20021;-77
2023/11/27 10:24:21;;;;;;;0.00;0.00;;;;;;;15.09;71.66;98743.13;4847561;29;20489;-75
2023/11/27 10:26:50;;;;;;;0.00;0.00;;;;;;;14.92;69.90;98748.78;4846017;29;20033;-74
2023/11/27 10:29:33;;;;;;;0.00;0.00;;;;;;;14.08;72.33;98739.22;4839278;29;20037;-77
2023/11/27 10:32:09;;;;;;;0.00;0.00;;;;;;;13.53;74.69;98734.59;4836953;29;20030;-78
2023/11/27 10:34:42;;;;;;;0.00;0.00;;;;;;;13.46;75.64;98735.06;4867550;29;20249;-75
2023/11/27 10:37:09;;;;;;;0.00;0.00;;;;;;;13.25;76.00;98730.22;4850962;29;20516;-75
2023/11/27 10:39:40;;;;;;;0.00;0.00;;;;;;;13.09;75.17;98743.66;4847138;29;20052;-77
2023/11/27 10:42:07;;;;;;;0.00;0.00;;;;;;;12.57;75.51;98716.22;4864496;29;20033;-76
2023/11/27 10:44:40;;;;;;;0.00;0.00;;;;;;;12.32;77.02;98732.28;4866922;29;20619;-75
2023/11/27 10:47:07;;;;;;;0.00;0.00;;;;;;;12.21;77.88;98709.06;4855084;29;20048;-76
2023/11/27 10:49:36;;;;;;;0.00;0.00;;;;;;;13.93;76.56;98715.03;4848936;29;20514;-76
2023/11/27 10:52:04;;;;;;;0.00;0.00;;;;;;;16.34;62.58;98700.88;4847336;29;20616;-75
2023/11/27 10:54:43;;;;;;;;;;;;;;;;;;;;;
2023/11/27 10:57:09;;;;;;;0.00;0.00;;;;;;;18.24;56.04;98694.25;4859621;29;20018;-75
2023/11/27 10:59:38;;;;;;;0.10;0.10;;;;;;;20.93;47.56;98693.94;4868658;29;20391;-76
2023/11/27 11:02:05;;;;;;;0.00;0.00;;;;;;;20.89;46.39;98712.53;4865070;29;20044;-77
2023/11/27 11:04:51;;;;;;;0.00;0.00;;;;;;;20.43;46.84;98720.97;4841090;29;20033;-76
2023/11/27 11:07:19;;;;;;;0.00;0.00;;;;;;;22.33;43.13;98702.88;4853619;29;20037;-76
2023/11/27 11:09:55;;;;;;;0.00;0.00;;;;;;;22.53;41.89;98674.75;4846209;29;20057;-75
2023/11/27 11:12:23;;;;;;;0.00;0.00;;;;;;;23.38;41.28;98703.38;4852956;29;20116;-76
2023/11/27 11:14:55;;;;;;;0.00;0.00;;;;;;;24.66;39.22;98673.09;4856159;29;20034;-77
2023/11/27 11:17:39;;;;;;;0.00;0.00;;;;;;;26.07;35.54;98678.72;4871637;29;20033;-76
2023/11/27 11:20:27;;;;;;;0.00;0.00;;;;;;;22.87;38.67;98649.44;4866263;29;20065;-77
2023/11/27 11:23:20;;;;;;;0.00;0.00;;;;;;;23.59;39.55;98655.22;4836763;29;20036;-76
2023/11/27 11:25:55;;;;;;;0.00;0.00;;;;;;;25.49;35.31;98645.53;4861264;29;20112;-76
2023/11/27 11:28:33;;;;;;;0.00;0.00;;;;;;;27.12;32.93;98661.59;4865666;29;20068;-76
2023/11/27 11:31:23;;;;;;;0.00;0.00;;;;;;;27.63;31.99;98648.44;4871151;29;20043;-76
2023/11/27 11:33:49;;;;;;;0.00;0.00;;;;;;;27.39;30.85;98658.03;4863315;29;20052;-77
2023/11/27 11:36:45;;;;;;;0.00;0.00;;;;;;;26.45;32.78;98653.53;4866081;29;20060;-77
2023/11/27 11:39:19;;;;;;;0.00;0.00;;;;;;;24.95;34.57;98636.66;4851044;29;20050;-77